sensor_id;sensor_type;location;lat;lon;timestamp;P1;durP1;ratioP1;P2;durP2;ratioP2
15573;SDS011;7888;46.748;8.102;2022-08-25T06:21:34;10.85;;;2.33;;
15573;SDS011;7888;46.748;8.102;2022-08-25T06:24:03;4.88;;;2.10;;
15573;SDS011;7888;46.748;8.102;2022-08-25T06:26:29;14.73;;;2.53;;
15573;SDS011;7888;46.748;8.102;2022-08-25T06:28:55;6.68;;;2.55;;
15573;SDS011;7888;46.748;8.102;2022-08-25T06:31:21;8.18;;;2.10;;
15573;SDS011;7888;46.748;8.102;2022-08-25T06:33:47;5.05;;;2.22;;
15573;SDS011;7888;46.748;8.102;2022-08-25T06:36:14;5.00;;;1.95;;
15573;SDS011;7888;46.748;8.102;2022-08-25T06:38:40;6.50;;;2.00;;
15573;SDS011;7888;46.748;8.102;2022-08-25T06:41:07;2.25;;;2.03;;
15573;SDS011;7888;46.748;8.102;2022-08-25T06:43:34;8.98;;;2.00;;
15573;SDS011;7888;46.748;8.102;2022-08-25T06:48:45;14.73;;;2.65;;
15573;SDS011;7888;46.748;8.102;2022-08-25T06:51:13;20.85;;;3.25;;
15573;SDS011;7888;46.748;8.102;2022-08-25T06:53:43;12.27;;;2.55;;
15573;SDS011;7888;46.748;8.102;2022-08-25T06:56:11;18.80;;;3.00;;
15573;SDS011;7888;46.748;8.102;2022-08-25T06:58:38;15.90;;;2.78;;
15573;SDS011;7888;46.748;8.102;2022-08-25T07:01:09;10.27;;;2.17;;
15573;SDS011;7888;46.748;8.102;2022-08-25T07:03:46;10.85;;;2.58;;
15573;SDS011;7888;46.748;8.102;2022-08-25T07:06:14;15.30;;;2.90;;
15573;SDS011;7888;46.748;8.102;2022-08-25T07:08:42;26.35;;;3.85;;
15573;SDS011;7888;46.748;8.102;2022-08-25T07:11:09;26.52;;;3.50;;
15573;SDS011;7888;46.748;8.102;2022-08-25T07:13:37;25.80;;;3.88;;
15573;SDS011;7888;46.748;8.102;2022-08-25T07:16:03;16.80;;;3.40;;
15573;SDS011;7888;46.748;8.102;2022-08-25T07:18:30;16.48;;;3.10;;
15573;SDS011;7888;46.748;8.102;2022-08-25T07:20:57;18.15;;;2.90;;
15573;SDS011;7888;46.748;8.102;2022-08-25T07:23:23;14.57;;;2.78;;
15573;SDS011;7888;46.748;8.102;2022-08-25T07:25:51;22.25;;;2.83;;
15573;SDS011;7888;46.748;8.102;2022-08-25T07:28:19;11.80;;;2.35;;
15573;SDS011;7888;46.748;8.102;2022-08-25T07:30:46;3.38;;;2.00;;
15573;SDS011;7888;46.748;8.102;2022-08-25T07:33:14;5.75;;;1.90;;
15573;SDS011;7888;46.748;8.102;2022-08-25T07:35:39;7.13;;;1.85;;
15573;SDS011;7888;46.748;8.102;2022-08-25T07:38:06;3.75;;;1.92;;
15573;SDS011;7888;46.748;8.102;2022-08-25T07:40:34;7.90;;;2.15;;
15573;SDS011;7888;46.748;8.102;2022-08-25T07:43:03;6.25;;;2.10;;
15573;SDS011;7888;46.748;8.102;2022-08-25T07:45:35;18.60;;;3.17;;
15573;SDS011;7888;46.748;8.102;2022-08-25T07:48:08;31.35;;;4.85;;
15573;SDS011;7888;46.748;8.102;2022-08-25T07:50:36;24.80;;;4.40;;
15573;SDS011;7888;46.748;8.102;2022-08-25T07:53:06;12.45;;;3.20;;
15573;SDS011;7888;46.748;8.102;2022-08-25T07:55:33;9.43;;;2.40;;
15573;SDS011;7888;46.748;8.102;2022-08-25T07:58:00;3.28;;;1.48;;
15573;SDS011;7888;46.748;8.102;2022-08-25T08:00:29;6.57;;;1.98;;
15573;SDS011;7888;46.748;8.102;2022-08-25T08:02:57;6.50;;;1.92;;
15573;SDS011;7888;46.748;8.102;2022-08-25T08:05:25;3.35;;;1.80;;
15573;SDS011;7888;46.748;8.102;2022-08-25T08:07:52;3.60;;;1.52;;
15573;SDS011;7888;46.748;8.102;2022-08-25T08:10:19;1.90;;;1.80;;
15573;SDS011;7888;46.748;8.102;2022-08-25T08:12:45;2.95;;;1.80;;
15573;SDS011;7888;46.748;8.102;2022-08-25T08:15:11;1.88;;;1.50;;
15573;SDS011;7888;46.748;8.102;2022-08-25T08:17:38;2.55;;;1.35;;
15573;SDS011;7888;46.748;8.102;2022-08-25T08:20:05;2.33;;;1.48;;
15573;SDS011;7888;46.748;8.102;2022-08-25T08:22:34;2.35;;;1.77;;
15573;SDS011;7888;46.748;8.102;2022-08-25T08:25:02;1.77;;;1.65;;
15573;SDS011;7888;46.748;8.102;2022-08-25T08:27:29;3.70;;;1.90;;
15573;SDS011;7888;46.748;8.102;2022-08-25T08:29:55;3.15;;;2.03;;
15573;SDS011;7888;46.748;8.102;2022-08-25T08:32:21;3.03;;;1.80;;
15573;SDS011;7888;46.748;8.102;2022-08-25T08:34:47;1.80;;;1.70;;
15573;SDS011;7888;46.748;8.102;2022-08-25T08:37:13;6.93;;;1.90;;
15573;SDS011;7888;46.748;8.102;2022-08-25T08:39:39;2.88;;;1.73;;
15573;SDS011;7888;46.748;8.102;2022-08-25T08:45:06;1.83;;;1.73;;
15573;SDS011;7888;46.748;8.102;2022-08-25T08:53:33;1.90;;;1.70;;
15573;SDS011;7888;46.748;8.102;2022-08-25T08:56:31;2.72;;;1.67;;
15573;SDS011;7888;46.748;8.102;2022-08-25T08:59:25;2.00;;;1.80;;
15573;SDS011;7888;46.748;8.102;2022-08-25T09:01:59;2.00;;;1.90;;
15573;SDS011;7888;46.748;8.102;2022-08-25T09:04:29;1.73;;;1.63;;
15573;SDS011;7888;46.748;8.102;2022-08-25T09:07:12;2.35;;;1.70;;
15573;SDS011;7888;46.748;8.102;2022-08-25T09:09:43;2.22;;;1.98;;
15573;SDS011;7888;46.748;8.102;2022-08-25T09:27:12;3.28;;;2.40;;
15573;SDS011;7888;46.748;8.102;2022-08-25T09:33:03;1.80;;;1.70;;
15573;SDS011;7888;46.748;8.102;2022-08-25T09:35:33;2.13;;;1.80;;
15573;SDS011;7888;46.748;8.102;2022-08-25T09:38:04;1.98;;;1.77;;
15573;SDS011;7888;46.748;8.102;2022-08-25T09:40:35;1.77;;;1.67;;
15573;SDS011;7888;46.748;8.102;2022-08-25T09:43:17;1.63;;;1.40;;
15573;SDS011;7888;46.748;8.102;2022-08-25T09:48:51;2.55;;;1.50;;
15573;SDS011;7888;46.748;8.102;2022-08-25T09:51:23;1.88;;;1.63;;
15573;SDS011;7888;46.748;8.102;2022-08-25T09:56:51;2.55;;;1.70;;
15573;SDS011;7888;46.748;8.102;2022-08-25T10:01:51;1.40;;;1.30;;
15573;SDS011;7888;46.748;8.102;2022-08-25T10:04:26;1.70;;;1.60;;
15573;SDS011;7888;46.748;8.102;2022-08-25T10:07:48;2.30;;;1.63;;
15573;SDS011;7888;46.748;8.102;2022-08-25T10:10:03;5.38;;;1.60;;
15573;SDS011;7888;46.748;8.102;2022-08-25T10:13:15;2.15;;;1.67;;
15573;SDS011;7888;46.748;8.102;2022-08-25T10:15:45;1.88;;;1.77;;
15573;SDS011;7888;46.748;8.102;2022-08-25T10:20:41;2.45;;;1.52;;
15573;SDS011;7888;46.748;8.102;2022-08-25T10:23:10;2.88;;;1.85;;
15573;SDS011;7888;46.748;8.102;2022-08-25T10:25:48;3.03;;;1.40;;
15573;SDS011;7888;46.748;8.102;2022-08-25T10:28:19;2.20;;;1.38;;
15573;SDS011;7888;46.748;8.102;2022-08-25T10:31:24;1.70;;;1.48;;
15573;SDS011;7888;46.748;8.102;2022-08-25T10:45:50;2.60;;;1.50;;
15573;SDS011;7888;46.748;8.102;2022-08-25T10:48:51;1.77;;;1.67;;
15573;SDS011;7888;46.748;8.102;2022-08-25T10:54:45;1.50;;;1.40;;
15573;SDS011;7888;46.748;8.102;2022-08-25T11:00:54;1.55;;;1.38;;
15573;SDS011;7888;46.748;8.102;2022-08-25T11:04:02;1.92;;;1.50;;
15573;SDS011;7888;46.748;8.102;2022-08-25T11:06:50;1.70;;;1.60;;
15573;SDS011;7888;46.748;8.102;2022-08-25T11:09:32;3.83;;;1.50;;
15573;SDS011;7888;46.748;8.102;2022-08-25T11:12:07;2.22;;;1.52;;
15573;SDS011;7888;46.748;8.102;2022-08-25T11:14:53;1.65;;;1.55;;
15573;SDS011;7888;46.748;8.102;2022-08-25T11:17:25;1.55;;;1.45;;
15573;SDS011;7888;46.748;8.102;2022-08-25T11:20:04;1.33;;;1.30;;
15573;SDS011;7888;46.748;8.102;2022-08-25T11:30:40;2.00;;;1.80;;
15573;SDS011;7888;46.748;8.102;2022-08-25T11:33:11;1.75;;;1.65;;
15573;SDS011;7888;46.748;8.102;2022-08-25T11:35:43;1.80;;;1.70;;
15573;SDS011;7888;46.748;8.102;2022-08-25T11:38:24;1.75;;;1.65;;
15573;SDS011;7888;46.748;8.102;2022-08-25T11:57:37;1.80;;;1.70;;
15573;SDS011;7888;46.748;8.102;2022-08-25T12:00:51;2.00;;;1.80;;
15573;SDS011;7888;46.748;8.102;2022-08-25T12:19:25;2.70;;;1.95;;
15573;SDS011;7888;46.748;8.102;2022-08-25T12:38:29;1.67;;;1.55;;
15573;SDS011;7888;46.748;8.102;2022-08-25T12:41:03;1.83;;;1.73;;
15573;SDS011;7888;46.748;8.102;2022-08-25T12:44:08;1.90;;;1.65;;
15573;SDS011;7888;46.748;8.102;2022-08-25T12:47:32;2.00;;;1.90;;
15573;SDS011;7888;46.748;8.102;2022-08-25T12:53:17;2.38;;;1.70;;
15573;SDS011;7888;46.748;8.102;2022-08-25T12:56:02;2.05;;;1.95;;
15573;SDS011;7888;46.748;8.102;2022-08-25T12:58:33;2.00;;;1.75;;
15573;SDS011;7888;46.748;8.102;2022-08-25T13:01:17;2.10;;;1.92;;
15573;SDS011;7888;46.748;8.102;2022-08-25T13:04:03;2.47;;;2.10;;
15573;SDS011;7888;46.748;8.102;2022-08-25T13:10:02;4.13;;;2.20;;
15573;SDS011;7888;46.748;8.102;2022-08-25T13:15:56;2.83;;;1.83;;
15573;SDS011;7888;46.748;8.102;2022-08-25T13:18:39;2.28;;;1.90;;
15573;SDS011;7888;46.748;8.102;2022-08-25T13:24:18;1.95;;;1.85;;
15573;SDS011;7888;46.748;8.102;2022-08-25T13:26:54;3.08;;;2.05;;
15573;SDS011;7888;46.748;8.102;2022-08-25T13:29:25;2.05;;;1.95;;
15573;SDS011;7888;46.748;8.102;2022-08-25T13:32:23;3.33;;;1.85;;
15573;SDS011;7888;46.748;8.102;2022-08-25T13:35:16;4.43;;;2.13;;
15573;SDS011;7888;46.748;8.102;2022-08-25T13:37:49;2.58;;;1.80;;
15573;SDS011;7888;46.748;8.102;2022-08-25T13:42:58;2.22;;;2.10;;
15573;SDS011;7888;46.748;8.102;2022-08-25T13:45:29;2.22;;;2.05;;
15573;SDS011;7888;46.748;8.102;2022-08-25T13:48:00;2.10;;;2.00;;
15573;SDS011;7888;46.748;8.102;2022-08-25T13:53:03;2.95;;;2.47;;
15573;SDS011;7888;46.748;8.102;2022-08-25T13:55:53;5.82;;;2.28;;
15573;SDS011;7888;46.748;8.102;2022-08-25T13:58:30;2.35;;;1.83;;
15573;SDS011;7888;46.748;8.102;2022-08-25T14:00:59;2.03;;;1.88;;
15573;SDS011;7888;46.748;8.102;2022-08-25T14:03:50;2.10;;;1.92;;
15573;SDS011;7888;46.748;8.102;2022-08-25T14:06:20;2.20;;;2.00;;
15573;SDS011;7888;46.748;8.102;2022-08-25T14:14:32;4.32;;;2.10;;
15573;SDS011;7888;46.748;8.102;2022-08-25T14:17:00;2.78;;;1.90;;
15573;SDS011;7888;46.748;8.102;2022-08-25T14:19:33;2.35;;;2.15;;
15573;SDS011;7888;46.748;8.102;2022-08-25T14:22:08;2.28;;;2.10;;
15573;SDS011;7888;46.748;8.102;2022-08-25T14:24:34;2.10;;;1.90;;
15573;SDS011;7888;46.748;8.102;2022-08-25T14:27:00;2.10;;;1.90;;
15573;SDS011;7888;46.748;8.102;2022-08-25T14:29:27;2.25;;;2.00;;
15573;SDS011;7888;46.748;8.102;2022-08-25T14:31:54;2.25;;;2.05;;
15573;SDS011;7888;46.748;8.102;2022-08-25T14:34:22;6.95;;;2.25;;
15573;SDS011;7888;46.748;8.102;2022-08-25T14:36:53;4.47;;;2.50;;
15573;SDS011;7888;46.748;8.102;2022-08-25T14:39:20;3.05;;;2.05;;
15573;SDS011;7888;46.748;8.102;2022-08-25T14:41:46;2.00;;;1.90;;
15573;SDS011;7888;46.748;8.102;2022-08-25T14:44:14;3.90;;;1.85;;
15573;SDS011;7888;46.748;8.102;2022-08-25T14:46:48;7.18;;;2.15;;
15573;SDS011;7888;46.748;8.102;2022-08-25T14:49:25;2.33;;;2.05;;
15573;SDS011;7888;46.748;8.102;2022-08-25T14:52:00;1.60;;;1.50;;
15573;SDS011;7888;46.748;8.102;2022-08-25T14:54:34;1.90;;;1.70;;
15573;SDS011;7888;46.748;8.102;2022-08-25T14:57:00;1.92;;;1.83;;
15573;SDS011;7888;46.748;8.102;2022-08-25T14:59:26;2.78;;;2.30;;
15573;SDS011;7888;46.748;8.102;2022-08-25T15:01:52;2.80;;;2.10;;
15573;SDS011;7888;46.748;8.102;2022-08-25T15:04:20;2.05;;;1.80;;
15573;SDS011;7888;46.748;8.102;2022-08-25T15:06:54;1.75;;;1.58;;
15573;SDS011;7888;46.748;8.102;2022-08-25T15:09:23;3.88;;;2.10;;
15573;SDS011;7888;46.748;8.102;2022-08-25T15:11:50;1.88;;;1.73;;
15573;SDS011;7888;46.748;8.102;2022-08-25T15:14:20;2.35;;;1.80;;
15573;SDS011;7888;46.748;8.102;2022-08-25T15:16:53;1.92;;;1.83;;
15573;SDS011;7888;46.748;8.102;2022-08-25T15:19:22;1.80;;;1.70;;
15573;SDS011;7888;46.748;8.102;2022-08-25T15:21:51;3.33;;;1.98;;
15573;SDS011;7888;46.748;8.102;2022-08-25T15:24:18;2.60;;;1.77;;
15573;SDS011;7888;46.748;8.102;2022-08-25T15:26:52;3.72;;;2.00;;
15573;SDS011;7888;46.748;8.102;2022-08-25T15:29:23;1.92;;;1.83;;
15573;SDS011;7888;46.748;8.102;2022-08-25T15:31:53;2.55;;;1.80;;
15573;SDS011;7888;46.748;8.102;2022-08-25T15:34:19;2.78;;;1.80;;
15573;SDS011;7888;46.748;8.102;2022-08-25T15:36:45;2.60;;;1.70;;
15573;SDS011;7888;46.748;8.102;2022-08-25T15:39:11;3.33;;;2.13;;
15573;SDS011;7888;46.748;8.102;2022-08-25T15:41:38;2.13;;;1.95;;
15573;SDS011;7888;46.748;8.102;2022-08-25T15:44:04;2.00;;;1.80;;
15573;SDS011;7888;46.748;8.102;2022-08-25T15:46:33;1.83;;;1.73;;
15573;SDS011;7888;46.748;8.102;2022-08-25T15:49:01;4.50;;;2.20;;
15573;SDS011;7888;46.748;8.102;2022-08-25T15:51:27;2.47;;;1.90;;
15573;SDS011;7888;46.748;8.102;2022-08-25T15:53:53;3.58;;;2.00;;
15573;SDS011;7888;46.748;8.102;2022-08-25T15:56:21;1.80;;;1.70;;
15573;SDS011;7888;46.748;8.102;2022-08-25T15:58:48;2.58;;;1.88;;
15573;SDS011;7888;46.748;8.102;2022-08-25T16:01:16;3.25;;;1.80;;
15573;SDS011;7888;46.748;8.102;2022-08-25T16:03:49;1.90;;;1.80;;
15573;SDS011;7888;46.748;8.102;2022-08-25T16:06:16;2.05;;;1.95;;
15573;SDS011;7888;46.748;8.102;2022-08-25T16:08:42;1.90;;;1.80;;
15573;SDS011;7888;46.748;8.102;2022-08-25T16:11:16;3.78;;;1.70;;
15573;SDS011;7888;46.748;8.102;2022-08-25T16:13:50;2.17;;;1.77;;
15573;SDS011;7888;46.748;8.102;2022-08-25T16:16:18;2.00;;;1.80;;
15573;SDS011;7888;46.748;8.102;2022-08-25T16:18:46;2.00;;;1.90;;
15573;SDS011;7888;46.748;8.102;2022-08-25T16:21:13;2.15;;;1.83;;
15573;SDS011;7888;46.748;8.102;2022-08-25T16:23:44;3.42;;;1.80;;
15573;SDS011;7888;46.748;8.102;2022-08-25T16:26:10;2.08;;;1.88;;
15573;SDS011;7888;46.748;8.102;2022-08-25T16:28:40;2.38;;;1.70;;
15573;SDS011;7888;46.748;8.102;2022-08-25T16:31:09;3.00;;;1.90;;
15573;SDS011;7888;46.748;8.102;2022-08-25T16:33:38;2.50;;;2.13;;
15573;SDS011;7888;46.748;8.102;2022-08-25T16:36:05;2.10;;;1.90;;
15573;SDS011;7888;46.748;8.102;2022-08-25T16:38:40;2.38;;;1.70;;
15573;SDS011;7888;46.748;8.102;2022-08-25T16:41:09;1.73;;;1.63;;
15573;SDS011;7888;46.748;8.102;2022-08-25T16:43:40;1.58;;;1.48;;
15573;SDS011;7888;46.748;8.102;2022-08-25T16:46:08;2.00;;;1.88;;
15573;SDS011;7888;46.748;8.102;2022-08-25T16:48:37;4.40;;;1.92;;
15573;SDS011;7888;46.748;8.102;2022-08-25T16:51:11;2.25;;;1.80;;
15573;SDS011;7888;46.748;8.102;2022-08-25T16:53:41;2.13;;;1.92;;
15573;SDS011;7888;46.748;8.102;2022-08-25T16:56:26;2.83;;;2.03;;
15573;SDS011;7888;46.748;8.102;2022-08-25T16:58:53;2.60;;;2.00;;
15573;SDS011;7888;46.748;8.102;2022-08-25T17:01:21;2.00;;;1.80;;
15573;SDS011;7888;46.748;8.102;2022-08-25T17:03:52;2.97;;;2.08;;
15573;SDS011;7888;46.748;8.102;2022-08-25T17:06:20;1.98;;;1.75;;
15573;SDS011;7888;46.748;8.102;2022-08-25T17:08:48;2.35;;;2.10;;
15573;SDS011;7888;46.748;8.102;2022-08-25T17:11:20;2.20;;;2.10;;
15573;SDS011;7888;46.748;8.102;2022-08-25T17:13:53;1.90;;;1.80;;
15573;SDS011;7888;46.748;8.102;2022-08-25T17:16:26;2.40;;;2.20;;
15573;SDS011;7888;46.748;8.102;2022-08-25T17:18:56;2.47;;;2.28;;
15573;SDS011;7888;46.748;8.102;2022-08-25T17:21:25;2.38;;;2.20;;
15573;SDS011;7888;46.748;8.102;2022-08-25T17:23:56;2.42;;;1.90;;
15573;SDS011;7888;46.748;8.102;2022-08-25T17:26:23;2.15;;;1.95;;
15573;SDS011;7888;46.748;8.102;2022-08-25T17:28:50;2.33;;;2.03;;
15573;SDS011;7888;46.748;8.102;2022-08-25T17:31:17;2.20;;;2.10;;
15573;SDS011;7888;46.748;8.102;2022-08-25T17:33:43;3.70;;;2.47;;
15573;SDS011;7888;46.748;8.102;2022-08-25T17:36:10;2.33;;;2.15;;
15573;SDS011;7888;46.748;8.102;2022-08-25T17:38:37;2.45;;;2.20;;
15573;SDS011;7888;46.748;8.102;2022-08-25T17:41:05;2.72;;;2.08;;
15573;SDS011;7888;46.748;8.102;2022-08-25T17:43:35;2.40;;;2.20;;
15573;SDS011;7888;46.748;8.102;2022-08-25T17:46:07;2.30;;;2.10;;
15573;SDS011;7888;46.748;8.102;2022-08-25T17:48:34;2.33;;;1.88;;
15573;SDS011;7888;46.748;8.102;2022-08-25T17:51:02;3.58;;;2.30;;
15573;SDS011;7888;46.748;8.102;2022-08-25T17:53:30;2.28;;;2.08;;
15573;SDS011;7888;46.748;8.102;2022-08-25T17:56:02;2.10;;;1.88;;
15573;SDS011;7888;46.748;8.102;2022-08-25T17:58:38;3.03;;;2.28;;
15573;SDS011;7888;46.748;8.102;2022-08-25T18:01:06;2.10;;;2.00;;
15573;SDS011;7888;46.748;8.102;2022-08-25T18:03:40;3.08;;;2.10;;
15573;SDS011;7888;46.748;8.102;2022-08-25T18:06:07;2.20;;;2.08;;
15573;SDS011;7888;46.748;8.102;2022-08-25T18:08:33;2.40;;;2.20;;
15573;SDS011;7888;46.748;8.102;2022-08-25T18:11:00;3.53;;;1.90;;
15573;SDS011;7888;46.748;8.102;2022-08-25T18:13:28;1.98;;;1.88;;
15573;SDS011;7888;46.748;8.102;2022-08-25T18:15:55;1.90;;;1.80;;
15573;SDS011;7888;46.748;8.102;2022-08-25T18:18:22;2.30;;;2.10;;
15573;SDS011;7888;46.748;8.102;2022-08-25T18:20:48;3.20;;;2.20;;
15573;SDS011;7888;46.748;8.102;2022-08-25T18:23:14;2.28;;;1.90;;
15573;SDS011;7888;46.748;8.102;2022-08-25T18:25:40;1.90;;;1.80;;
15573;SDS011;7888;46.748;8.102;2022-08-25T18:28:07;1.80;;;1.70;;
15573;SDS011;7888;46.748;8.102;2022-08-25T18:30:33;2.20;;;1.75;;
15573;SDS011;7888;46.748;8.102;2022-08-25T18:33:00;1.95;;;1.75;;
15573;SDS011;7888;46.748;8.102;2022-08-25T18:35:26;1.67;;;1.58;;
15573;SDS011;7888;46.748;8.102;2022-08-25T18:37:52;2.00;;;1.80;;
15573;SDS011;7888;46.748;8.102;2022-08-25T18:40:36;2.25;;;1.90;;
15573;SDS011;7888;46.748;8.102;2022-08-25T18:43:04;2.17;;;2.00;;
15573;SDS011;7888;46.748;8.102;2022-08-25T18:45:43;2.25;;;2.05;;
15573;SDS011;7888;46.748;8.102;2022-08-25T18:48:12;2.63;;;2.42;;
15573;SDS011;7888;46.748;8.102;2022-08-25T18:50:39;2.80;;;2.53;;
15573;SDS011;7888;46.748;8.102;2022-08-25T18:53:07;2.45;;;2.00;;
15573;SDS011;7888;46.748;8.102;2022-08-25T18:55:35;1.80;;;1.70;;
15573;SDS011;7888;46.748;8.102;2022-08-25T18:58:03;5.57;;;1.80;;
15573;SDS011;7888;46.748;8.102;2022-08-25T19:00:30;2.33;;;2.13;;
15573;SDS011;7888;46.748;8.102;2022-08-25T19:02:58;2.20;;;1.92;;
15573;SDS011;7888;46.748;8.102;2022-08-25T19:05:31;1.75;;;1.65;;
15573;SDS011;7888;46.748;8.102;2022-08-25T19:08:02;3.00;;;1.73;;
15573;SDS011;7888;46.748;8.102;2022-08-25T19:10:31;2.40;;;1.63;;
15573;SDS011;7888;46.748;8.102;2022-08-25T19:13:00;2.00;;;1.80;;
15573;SDS011;7888;46.748;8.102;2022-08-25T19:15:28;2.53;;;1.90;;
15573;SDS011;7888;46.748;8.102;2022-08-25T19:17:55;2.65;;;1.77;;
15573;SDS011;7888;46.748;8.102;2022-08-25T19:20:23;1.92;;;1.83;;
15573;SDS011;7888;46.748;8.102;2022-08-25T19:22:50;1.75;;;1.50;;
15573;SDS011;7888;46.748;8.102;2022-08-25T19:25:19;1.67;;;1.58;;
15573;SDS011;7888;46.748;8.102;2022-08-25T19:27:47;2.13;;;1.83;;
15573;SDS011;7888;46.748;8.102;2022-08-25T19:30:15;1.90;;;1.80;;
15573;SDS011;7888;46.748;8.102;2022-08-25T19:32:45;1.73;;;1.50;;
15573;SDS011;7888;46.748;8.102;2022-08-25T19:35:18;1.90;;;1.80;;
15573;SDS011;7888;46.748;8.102;2022-08-25T19:37:57;1.70;;;1.60;;
15573;SDS011;7888;46.748;8.102;2022-08-25T19:40:25;2.33;;;1.80;;
15573;SDS011;7888;46.748;8.102;2022-08-25T19:42:53;2.10;;;1.90;;
15573;SDS011;7888;46.748;8.102;2022-08-25T19:45:20;1.77;;;1.50;;
15573;SDS011;7888;46.748;8.102;2022-08-25T19:47:48;1.73;;;1.60;;
15573;SDS011;7888;46.748;8.102;2022-08-25T19:50:15;1.70;;;1.60;;
15573;SDS011;7888;46.748;8.102;2022-08-25T19:52:43;2.33;;;1.98;;
15573;SDS011;7888;46.748;8.102;2022-08-25T19:55:10;3.47;;;1.83;;
15573;SDS011;7888;46.748;8.102;2022-08-25T19:57:36;1.67;;;1.58;;
15573;SDS011;7888;46.748;8.102;2022-08-25T20:00:11;3.42;;;1.63;;
15573;SDS011;7888;46.748;8.102;2022-08-25T20:02:42;2.22;;;2.03;;
15573;SDS011;7888;46.748;8.102;2022-08-25T20:05:09;1.80;;;1.70;;
15573;SDS011;7888;46.748;8.102;2022-08-25T20:07:38;1.70;;;1.60;;
15573;SDS011;7888;46.748;8.102;2022-08-25T20:10:06;1.67;;;1.55;;
15573;SDS011;7888;46.748;8.102;2022-08-25T20:12:34;2.50;;;1.88;;
15573;SDS011;7888;46.748;8.102;2022-08-25T20:15:00;1.90;;;1.80;;
15573;SDS011;7888;46.748;8.102;2022-08-25T20:17:26;2.20;;;1.90;;
15573;SDS011;7888;46.748;8.102;2022-08-25T20:19:53;2.00;;;1.73;;
15573;SDS011;7888;46.748;8.102;2022-08-25T20:22:25;2.10;;;1.95;;
15573;SDS011;7888;46.748;8.102;2022-08-25T20:24:55;1.92;;;1.65;;
15573;SDS011;7888;46.748;8.102;2022-08-25T20:27:27;1.90;;;1.77;;
15573;SDS011;7888;46.748;8.102;2022-08-25T20:30:00;2.15;;;1.95;;
15573;SDS011;7888;46.748;8.102;2022-08-25T20:32:29;2.05;;;1.90;;
15573;SDS011;7888;46.748;8.102;2022-08-25T20:34:57;1.80;;;1.70;;
15573;SDS011;7888;46.748;8.102;2022-08-25T20:37:23;2.00;;;1.90;;
15573;SDS011;7888;46.748;8.102;2022-08-25T20:39:49;2.70;;;1.98;;
15573;SDS011;7888;46.748;8.102;2022-08-25T20:42:15;2.25;;;2.00;;
15573;SDS011;7888;46.748;8.102;2022-08-25T20:44:42;1.90;;;1.80;;
15573;SDS011;7888;46.748;8.102;2022-08-25T20:47:09;2.22;;;2.03;;
15573;SDS011;7888;46.748;8.102;2022-08-25T20:49:35;2.17;;;1.98;;
15573;SDS011;7888;46.748;8.102;2022-08-25T20:52:03;2.63;;;1.80;;
15573;SDS011;7888;46.748;8.102;2022-08-25T20:54:30;2.92;;;1.80;;
15573;SDS011;7888;46.748;8.102;2022-08-25T20:56:56;1.98;;;1.88;;
15573;SDS011;7888;46.748;8.102;2022-08-25T20:59:22;2.15;;;1.95;;
15573;SDS011;7888;46.748;8.102;2022-08-25T21:01:50;2.00;;;1.80;;
15573;SDS011;7888;46.748;8.102;2022-08-25T21:04:18;3.25;;;1.75;;
15573;SDS011;7888;46.748;8.102;2022-08-25T21:06:47;1.70;;;1.60;;
15573;SDS011;7888;46.748;8.102;2022-08-25T21:09:15;1.80;;;1.70;;
15573;SDS011;7888;46.748;8.102;2022-08-25T21:11:45;1.85;;;1.75;;
15573;SDS011;7888;46.748;8.102;2022-08-25T21:14:13;1.90;;;1.67;;
15573;SDS011;7888;46.748;8.102;2022-08-25T21:16:40;2.42;;;2.10;;
15573;SDS011;7888;46.748;8.102;2022-08-25T21:19:10;1.77;;;1.67;;
15573;SDS011;7888;46.748;8.102;2022-08-25T21:21:39;2.20;;;2.00;;
15573;SDS011;7888;46.748;8.102;2022-08-25T21:24:05;3.15;;;2.25;;
15573;SDS011;7888;46.748;8.102;2022-08-25T21:26:31;2.17;;;2.03;;
15573;SDS011;7888;46.748;8.102;2022-08-25T21:28:58;5.70;;;2.15;;
15573;SDS011;7888;46.748;8.102;2022-08-25T21:31:27;2.10;;;2.00;;
15573;SDS011;7888;46.748;8.102;2022-08-25T21:33:55;2.53;;;1.77;;
15573;SDS011;7888;46.748;8.102;2022-08-25T21:36:23;4.00;;;1.98;;
15573;SDS011;7888;46.748;8.102;2022-08-25T21:38:51;1.95;;;1.85;;
15573;SDS011;7888;46.748;8.102;2022-08-25T21:41:19;1.95;;;1.80;;
15573;SDS011;7888;46.748;8.102;2022-08-25T21:43:52;1.70;;;1.60;;
15573;SDS011;7888;46.748;8.102;2022-08-25T21:46:19;2.63;;;1.90;;
15573;SDS011;7888;46.748;8.102;2022-08-25T21:48:50;2.17;;;1.98;;
15573;SDS011;7888;46.748;8.102;2022-08-25T21:51:20;2.33;;;2.13;;
15573;SDS011;7888;46.748;8.102;2022-08-25T21:53:53;3.08;;;1.90;;
15573;SDS011;7888;46.748;8.102;2022-08-25T21:56:37;2.30;;;2.10;;
15573;SDS011;7888;46.748;8.102;2022-08-25T21:59:10;3.22;;;2.00;;
15573;SDS011;7888;46.748;8.102;2022-08-25T22:01:40;1.95;;;1.77;;
15573;SDS011;7888;46.748;8.102;2022-08-25T22:04:07;2.20;;;2.00;;
15573;SDS011;7888;46.748;8.102;2022-08-25T22:06:39;2.25;;;1.80;;
15573;SDS011;7888;46.748;8.102;2022-08-25T22:09:06;1.73;;;1.63;;
15573;SDS011;7888;46.748;8.102;2022-08-25T22:11:34;2.25;;;2.05;;
15573;SDS011;7888;46.748;8.102;2022-08-25T22:14:01;3.15;;;1.90;;
15573;SDS011;7888;46.748;8.102;2022-08-25T22:16:29;1.95;;;1.85;;
15573;SDS011;7888;46.748;8.102;2022-08-25T22:18:56;1.98;;;1.88;;
15573;SDS011;7888;46.748;8.102;2022-08-25T22:21:23;2.53;;;1.55;;
15573;SDS011;7888;46.748;8.102;2022-08-25T22:23:53;1.90;;;1.80;;
15573;SDS011;7888;46.748;8.102;2022-08-25T22:26:20;3.47;;;1.75;;
15573;SDS011;7888;46.748;8.102;2022-08-25T22:28:47;2.40;;;2.15;;
15573;SDS011;7888;46.748;8.102;2022-08-25T22:31:13;3.13;;;1.95;;
15573;SDS011;7888;46.748;8.102;2022-08-25T22:33:41;3.30;;;2.00;;
15573;SDS011;7888;46.748;8.102;2022-08-25T22:36:17;2.47;;;1.63;;
15573;SDS011;7888;46.748;8.102;2022-08-25T22:38:46;2.97;;;1.98;;
15573;SDS011;7888;46.748;8.102;2022-08-25T22:41:13;2.28;;;1.95;;
15573;SDS011;7888;46.748;8.102;2022-08-25T22:43:39;1.90;;;1.80;;
15573;SDS011;7888;46.748;8.102;2022-08-25T22:46:06;2.22;;;2.00;;
15573;SDS011;7888;46.748;8.102;2022-08-25T22:48:34;2.30;;;2.10;;
15573;SDS011;7888;46.748;8.102;2022-08-25T22:51:04;2.22;;;2.03;;
15573;SDS011;7888;46.748;8.102;2022-08-25T22:53:39;2.00;;;1.90;;
15573;SDS011;7888;46.748;8.102;2022-08-25T22:56:07;2.40;;;2.20;;
15573;SDS011;7888;46.748;8.102;2022-08-25T22:58:36;1.88;;;1.77;;
15573;SDS011;7888;46.748;8.102;2022-08-25T23:01:03;2.97;;;2.28;;
15573;SDS011;7888;46.748;8.102;2022-08-25T23:03:37;2.28;;;2.08;;
15573;SDS011;7888;46.748;8.102;2022-08-25T23:06:02;2.42;;;2.22;;
15573;SDS011;7888;46.748;8.102;2022-08-25T23:08:28;2.00;;;1.90;;
15573;SDS011;7888;46.748;8.102;2022-08-25T23:10:54;2.50;;;2.30;;
15573;SDS011;7888;46.748;8.102;2022-08-25T23:13:21;2.67;;;2.47;;
15573;SDS011;7888;46.748;8.102;2022-08-25T23:15:50;2.38;;;2.15;;
15573;SDS011;7888;46.748;8.102;2022-08-25T23:18:16;2.25;;;2.05;;
15573;SDS011;7888;46.748;8.102;2022-08-25T23:20:42;2.78;;;2.00;;
15573;SDS011;7888;46.748;8.102;2022-08-25T23:23:27;2.25;;;2.05;;
15573;SDS011;7888;46.748;8.102;2022-08-25T23:25:53;2.50;;;2.10;;
15573;SDS011;7888;46.748;8.102;2022-08-25T23:28:20;2.10;;;2.00;;
15573;SDS011;7888;46.748;8.102;2022-08-25T23:30:46;1.90;;;1.80;;
15573;SDS011;7888;46.748;8.102;2022-08-25T23:33:13;2.40;;;2.05;;
15573;SDS011;7888;46.748;8.102;2022-08-25T23:35:42;2.30;;;1.88;;
15573;SDS011;7888;46.748;8.102;2022-08-25T23:38:09;2.30;;;2.10;;
15573;SDS011;7888;46.748;8.102;2022-08-25T23:40:42;2.33;;;2.10;;
15573;SDS011;7888;46.748;8.102;2022-08-25T23:43:09;2.00;;;1.90;;
15573;SDS011;7888;46.748;8.102;2022-08-25T23:45:37;2.03;;;1.92;;
15573;SDS011;7888;46.748;8.102;2022-08-25T23:48:03;1.98;;;1.88;;
15573;SDS011;7888;46.748;8.102;2022-08-25T23:50:45;2.03;;;1.92;;
15573;SDS011;7888;46.748;8.102;2022-08-25T23:53:13;2.40;;;1.92;;
15573;SDS011;7888;46.748;8.102;2022-08-25T23:55:41;2.38;;;2.17;;
15573;SDS011;7888;46.748;8.102;2022-08-25T23:58:07;2.83;;;2.33;;
